createdAt,value
2023-03-06T00:00:42.053Z,6.20
2023-03-06T00:02:45.381Z,6.10
2023-03-06T00:04:48.188Z,5.90
2023-03-06T00:06:51.926Z,5.90
2023-03-06T00:08:55.032Z,5.80
2023-03-06T00:10:59.314Z,5.80
2023-03-06T00:13:04.804Z,5.70
2023-03-06T00:15:09.342Z,5.60
2023-03-06T00:17:12.150Z,5.40
2023-03-06T00:19:14.962Z,5.40
2023-03-06T00:21:17.738Z,5.20
2023-03-06T00:23:20.624Z,5.20
2023-03-06T00:25:23.632Z,5.10
2023-03-06T00:27:28.110Z,5.10
2023-03-06T00:29:30.870Z,5.20
2023-03-06T00:31:33.979Z,5.20
2023-03-06T00:33:36.818Z,5.30
2023-03-06T00:35:39.818Z,5.40
2023-03-06T00:37:42.984Z,5.50
2023-03-06T00:39:46.151Z,5.60
2023-03-06T00:41:49.075Z,5.80
2023-03-06T00:43:53.163Z,5.90
2023-03-06T00:45:56.037Z,5.90
2023-03-06T00:47:58.893Z,5.90
2023-03-06T00:50:01.701Z,5.90
2023-03-06T00:52:05.124Z,6.00
2023-03-06T00:54:07.927Z,6.00
2023-03-06T00:56:10.968Z,6.00
2023-03-06T00:58:13.785Z,6.00
2023-03-06T01:00:18.820Z,6.00
2023-03-06T01:02:22.266Z,6.00
2023-03-06T01:04:25.560Z,6.00
2023-03-06T01:06:29.229Z,6.00
2023-03-06T01:08:32.658Z,6.10
2023-03-06T01:10:39.099Z,6.20
2023-03-06T01:12:41.955Z,6.20
2023-03-06T01:14:44.904Z,6.20
2023-03-06T01:16:49.912Z,6.30
2023-03-06T01:18:52.674Z,6.30
2023-03-06T01:20:55.693Z,6.30
2023-03-06T01:22:58.686Z,6.30
2023-03-06T01:25:01.492Z,6.30
2023-03-06T01:27:04.492Z,6.40
2023-03-06T01:29:07.327Z,6.30
2023-03-06T01:31:10.407Z,6.30
2023-03-06T01:33:14.634Z,6.20
2023-03-06T01:35:17.745Z,6.20
2023-03-06T01:37:20.598Z,6.00
2023-03-06T01:39:23.418Z,6.10
2023-03-06T01:41:26.314Z,6.10
2023-03-06T01:43:31.438Z,6.00
2023-03-06T01:46:23.040Z,6.10
2023-03-06T01:48:27.272Z,6.00
2023-03-06T01:50:30.282Z,6.00
2023-03-06T01:52:38.929Z,6.00
2023-03-06T01:54:45.271Z,6.10
2023-03-06T01:56:51.783Z,6.10
2023-03-06T01:58:54.886Z,6.10
2023-03-06T02:00:57.686Z,6.10
2023-03-06T02:03:06.245Z,6.20
2023-03-06T02:05:11.019Z,6.20
2023-03-06T02:07:16.477Z,6.20
2023-03-06T02:09:19.344Z,6.20
2023-03-06T02:11:24.911Z,6.20
2023-03-06T02:13:27.819Z,6.20
2023-03-06T02:15:31.368Z,6.30
2023-03-06T02:17:36.010Z,6.30
2023-03-06T02:19:51.582Z,6.40
2023-03-06T02:21:56.603Z,6.40
2023-03-06T02:24:13.585Z,6.50
2023-03-06T02:26:18.949Z,6.50
2023-03-06T02:28:24.076Z,6.50
2023-03-06T02:30:28.477Z,6.40
2023-03-06T02:32:31.310Z,6.30
2023-03-06T02:34:52.466Z,6.30
2023-03-06T02:37:00.214Z,6.20
2023-03-06T02:39:03.774Z,6.20
2023-03-06T02:41:09.101Z,6.20
2023-03-06T02:43:15.365Z,6.30
2023-03-06T02:45:23.061Z,6.30
2023-03-06T02:47:26.135Z,6.40
2023-03-06T02:49:28.997Z,6.40
2023-03-06T02:51:31.897Z,6.40
2023-03-06T02:53:35.193Z,6.30
2023-03-06T02:55:38.547Z,6.30
2023-03-06T02:57:41.424Z,6.20
2023-03-06T02:59:45.524Z,6.10
2023-03-06T03:01:48.667Z,6.10
2023-03-06T03:03:51.615Z,6.00
2023-03-06T03:05:54.411Z,5.90
2023-03-06T03:07:57.157Z,5.90
2023-03-06T03:09:59.962Z,5.90
2023-03-06T03:12:02.755Z,5.80
2023-03-06T03:14:05.514Z,5.80
2023-03-06T03:16:14.024Z,5.70
2023-03-06T03:18:17.262Z,5.70
2023-03-06T03:20:23.131Z,5.60
2023-03-06T03:22:25.927Z,5.50
2023-03-06T03:24:29.079Z,5.40
2023-03-06T03:26:31.946Z,5.60
2023-03-06T03:28:34.757Z,5.70
2023-03-06T03:30:37.640Z,5.60
2023-03-06T03:32:41.889Z,5.70
2023-03-06T03:34:45.050Z,5.80
2023-03-06T03:36:48.060Z,5.80
2023-03-06T03:38:51.014Z,5.80
2023-03-06T03:40:54.123Z,5.90
2023-03-06T03:42:57.006Z,5.90
2023-03-06T03:44:59.817Z,6.00
2023-03-06T03:47:02.692Z,6.00
2023-03-06T03:49:07.216Z,6.10
2023-03-06T03:51:11.877Z,6.10
2023-03-06T03:53:14.800Z,6.20
2023-03-06T03:55:17.734Z,6.20
2023-03-06T03:57:20.604Z,6.30
2023-03-06T03:59:23.753Z,6.30
2023-03-06T04:01:27.290Z,6.20
2023-03-06T04:03:30.214Z,6.10
2023-03-06T04:05:34.394Z,5.80
2023-03-06T04:07:37.297Z,5.90
2023-03-06T04:09:40.092Z,6.00
2023-03-06T04:11:42.977Z,6.10
2023-03-06T04:13:45.846Z,6.10
2023-03-06T04:15:49.219Z,6.00
2023-03-06T04:17:52.242Z,6.00
2023-03-06T04:19:55.302Z,6.00
2023-03-06T04:21:59.384Z,6.00
2023-03-06T04:24:02.178Z,6.20
2023-03-06T04:26:05.213Z,6.30
2023-03-06T04:28:08.675Z,6.30
2023-03-06T04:30:12.736Z,6.40
2023-03-06T04:32:15.894Z,6.40
2023-03-06T04:34:18.664Z,6.50
2023-03-06T04:36:27.988Z,6.50
2023-03-06T04:38:32.142Z,6.60
2023-03-06T04:40:36.666Z,6.50
2023-03-06T04:42:39.652Z,6.50
2023-03-06T04:44:42.494Z,6.50
2023-03-06T04:46:45.495Z,6.50
2023-03-06T04:48:48.501Z,6.50
2023-03-06T04:50:51.324Z,6.50
2023-03-06T04:52:54.194Z,6.50
2023-03-06T04:54:58.530Z,6.50
2023-03-06T04:57:01.443Z,6.50
2023-03-06T04:59:04.752Z,6.60
2023-03-06T05:01:08.037Z,6.50
2023-03-06T05:03:11.798Z,6.50
2023-03-06T05:05:15.583Z,6.50
2023-03-06T05:07:18.922Z,6.50
2023-03-06T05:09:21.710Z,6.50
2023-03-06T05:11:25.840Z,6.60
2023-03-06T05:13:29.485Z,6.60
2023-03-06T05:15:32.269Z,6.60
2023-03-06T05:17:35.065Z,6.70
2023-03-06T05:19:37.858Z,6.70
2023-03-06T05:21:40.662Z,6.70
2023-03-06T05:23:43.453Z,6.70
2023-03-06T05:25:46.311Z,6.70
2023-03-06T05:27:50.437Z,6.80
2023-03-06T05:29:53.359Z,6.70
2023-03-06T05:31:56.254Z,6.80
2023-03-06T05:33:59.504Z,6.80
2023-03-06T05:36:02.442Z,6.80
2023-03-06T05:38:05.224Z,6.80
2023-03-06T05:40:10.696Z,6.70
2023-03-06T05:42:13.449Z,6.80
2023-03-06T05:44:17.579Z,6.70
2023-03-06T05:46:20.413Z,6.50
2023-03-06T05:48:23.204Z,6.50
2023-03-06T05:50:26.021Z,6.60
2023-03-06T05:52:28.861Z,6.60
2023-03-06T05:54:32.152Z,6.60
2023-03-06T05:56:34.957Z,6.60
2023-03-06T05:58:38.659Z,6.70
2023-03-06T06:00:42.751Z,6.70
2023-03-06T06:02:45.805Z,6.70
2023-03-06T06:04:48.628Z,6.80
2023-03-06T06:06:56.096Z,6.70
2023-03-06T06:08:58.876Z,6.80
2023-03-06T06:11:01.683Z,6.80
2023-03-06T06:13:04.496Z,6.80
2023-03-06T06:15:08.424Z,6.80
2023-03-06T06:17:12.818Z,6.70
2023-03-06T06:19:18.905Z,6.80
2023-03-06T06:21:21.845Z,6.80
2023-03-06T06:23:24.626Z,6.80
2023-03-06T06:25:27.438Z,6.90
2023-03-06T06:27:30.242Z,6.90
2023-03-06T06:29:33.822Z,6.90
2023-03-06T06:31:37.741Z,6.90
2023-03-06T06:33:42.426Z,6.90
2023-03-06T06:35:45.333Z,6.90
2023-03-06T06:37:48.493Z,7.00
2023-03-06T06:39:51.739Z,7.00
2023-03-06T06:42:14.661Z,6.90
2023-03-06T06:44:17.972Z,6.90
2023-03-06T06:46:59.289Z,6.90
2023-03-06T06:48:45.201Z,7.00
2023-03-06T06:50:55.426Z,7.10
2023-03-06T06:52:58.490Z,6.80
2023-03-06T06:55:01.276Z,6.70
2023-03-06T06:57:04.287Z,6.90
2023-03-06T06:59:16.418Z,6.90
2023-03-06T07:01:20.331Z,7.00
2023-03-06T07:03:23.735Z,6.70
2023-03-06T07:05:28.037Z,6.30
2023-03-06T07:07:30.975Z,6.50
2023-03-06T07:09:33.780Z,6.60
2023-03-06T07:11:38.699Z,6.80
2023-03-06T07:13:41.824Z,6.70
2023-03-06T07:15:44.728Z,6.70
2023-03-06T07:17:49.885Z,6.60
2023-03-06T07:19:53.074Z,6.70
2023-03-06T07:21:58.017Z,6.70
2023-03-06T07:24:02.334Z,6.90
2023-03-06T07:26:05.681Z,7.10
2023-03-06T07:28:08.558Z,7.40
2023-03-06T07:30:14.202Z,7.60
2023-03-06T07:32:17.012Z,7.70
2023-03-06T07:34:19.866Z,7.80
2023-03-06T07:36:24.528Z,7.40
2023-03-06T07:38:28.888Z,7.50
2023-03-06T07:40:31.748Z,7.60
2023-03-06T07:42:34.519Z,7.70
2023-03-06T07:44:37.766Z,7.80
2023-03-06T07:46:40.607Z,7.90
2023-03-06T07:48:44.491Z,8.10
2023-03-06T07:50:55.275Z,8.00
2023-03-06T07:52:58.064Z,8.10
2023-03-06T07:55:02.298Z,8.40
2023-03-06T07:57:05.116Z,8.40
2023-03-06T07:59:08.111Z,8.40
2023-03-06T08:01:12.448Z,7.40
2023-03-06T08:03:16.171Z,7.60
2023-03-06T08:05:19.276Z,7.80
2023-03-06T08:07:23.237Z,7.80
2023-03-06T08:09:26.534Z,7.90
2023-03-06T08:11:32.061Z,7.90
2023-03-06T08:13:35.379Z,8.10
2023-03-06T08:15:38.168Z,8.00
2023-03-06T08:17:41.721Z,7.90
2023-03-06T08:19:44.764Z,8.00
2023-03-06T08:21:47.616Z,7.90
2023-03-06T08:23:50.899Z,7.80
2023-03-06T08:25:57.802Z,7.80
2023-03-06T08:28:02.329Z,8.00
2023-03-06T08:30:06.194Z,7.70
2023-03-06T08:32:12.979Z,7.30
2023-03-06T08:34:18.432Z,7.30
2023-03-06T08:36:21.734Z,7.50
2023-03-06T08:38:24.660Z,7.30
2023-03-06T08:40:30.524Z,7.10
2023-03-06T08:42:33.536Z,7.20
2023-03-06T08:44:37.737Z,7.50
2023-03-06T08:46:40.855Z,7.30
2023-03-06T08:48:44.027Z,7.20
2023-03-06T08:50:47.246Z,7.00
2023-03-06T08:52:50.066Z,6.80
2023-03-06T08:54:52.858Z,7.20
2023-03-06T08:56:55.671Z,7.40
2023-03-06T08:59:00.498Z,7.10
2023-03-06T09:01:07.256Z,6.80
2023-03-06T09:03:11.144Z,7.00
2023-03-06T09:05:14.251Z,6.80
2023-03-06T09:07:17.141Z,7.10
2023-03-06T09:09:19.964Z,7.40
2023-03-06T09:11:24.072Z,7.20
2023-03-06T09:13:26.946Z,7.20
2023-03-06T09:15:29.772Z,7.20
2023-03-06T09:17:33.977Z,7.00
2023-03-06T09:19:46.050Z,7.00
2023-03-06T09:21:49.263Z,6.90
2023-03-06T09:23:53.229Z,6.80
2023-03-06T09:25:57.029Z,6.90
2023-03-06T09:28:10.898Z,6.60
2023-03-06T09:30:15.747Z,6.60
2023-03-06T09:32:18.569Z,6.50
2023-03-06T09:34:22.733Z,6.30
2023-03-06T09:36:25.855Z,6.50
2023-03-06T09:38:29.267Z,6.70
2023-03-06T09:40:48.077Z,6.60
2023-03-06T09:42:51.013Z,6.80
2023-03-06T09:44:57.264Z,6.90
2023-03-06T09:47:39.632Z,7.00
2023-03-06T09:50:00.341Z,7.30
2023-03-06T09:52:16.162Z,6.50
2023-03-06T09:54:26.157Z,6.20
2023-03-06T09:56:31.968Z,6.50
2023-03-06T09:58:41.723Z,6.40
2023-03-06T10:00:51.978Z,6.50
2023-03-06T10:03:01.733Z,6.60
2023-03-06T10:05:11.834Z,6.50
2023-03-06T10:07:20.063Z,6.80
2023-03-06T10:09:28.399Z,6.90
2023-03-06T10:11:37.630Z,6.90
2023-03-06T10:13:44.609Z,7.00
2023-03-06T10:15:48.961Z,7.00
2023-03-06T10:17:52.099Z,7.10
2023-03-06T10:19:55.472Z,7.10
2023-03-06T10:22:03.411Z,7.00
2023-03-06T10:24:19.580Z,7.30
2023-03-06T10:26:26.681Z,7.30
2023-03-06T10:28:33.280Z,6.90
2023-03-06T10:30:44.843Z,6.60
2023-03-06T10:32:55.079Z,6.70
2023-03-06T10:35:02.066Z,6.80
2023-03-06T10:37:19.008Z,6.70
2023-03-06T10:39:23.788Z,6.40
2023-03-06T10:41:28.577Z,6.50
2023-03-06T10:43:31.369Z,6.00
2023-03-06T10:45:48.419Z,5.80
2023-03-06T10:47:51.607Z,6.20
2023-03-06T10:49:59.730Z,5.70
2023-03-06T10:52:05.460Z,5.70
2023-03-06T10:54:20.951Z,6.00
2023-03-06T10:56:31.246Z,6.00
2023-03-06T10:58:34.244Z,5.80
2023-03-06T11:00:37.131Z,5.50
2023-03-06T11:02:41.387Z,5.40
2023-03-06T11:04:48.189Z,5.80
2023-03-06T11:07:12.746Z,5.90
2023-03-06T11:09:17.912Z,5.80
2023-03-06T11:11:36.821Z,6.40
2023-03-06T11:13:42.613Z,6.70
2023-03-06T11:15:57.727Z,7.10
2023-03-06T11:18:04.274Z,7.30
2023-03-06T11:20:22.387Z,7.60
2023-03-06T11:22:25.502Z,7.70
2023-03-06T11:24:31.148Z,7.60
2023-03-06T11:26:44.897Z,7.10
2023-03-06T11:28:55.874Z,7.10
2023-03-06T11:31:03.806Z,6.80
2023-03-06T11:33:16.398Z,7.40
2023-03-06T11:35:24.770Z,7.60
2023-03-06T11:37:38.615Z,7.90
2023-03-06T11:39:45.666Z,8.40
2023-03-06T11:41:58.961Z,7.80
2023-03-06T11:44:09.387Z,8.10
2023-03-06T11:46:19.780Z,7.20
2023-03-06T11:48:27.842Z,7.40
2023-03-06T11:50:35.562Z,7.60
2023-03-06T11:52:48.630Z,7.80
2023-03-06T11:54:56.747Z,7.70
2023-03-06T11:57:05.250Z,6.80
2023-03-06T11:59:31.457Z,7.30
2023-03-06T12:01:38.196Z,6.90
2023-03-06T12:04:26.917Z,6.90
2023-03-06T12:06:41.732Z,6.50
2023-03-06T12:08:57.220Z,6.30
2023-03-06T12:15:47.954Z,6.20
2023-03-06T12:18:04.422Z,6.10
2023-03-06T12:20:26.868Z,5.90
2023-03-06T12:22:43.145Z,6.00
2023-03-06T12:25:00.995Z,6.10
2023-03-06T12:27:14.598Z,6.40
2023-03-06T12:29:33.444Z,6.70
2023-03-06T12:31:51.050Z,6.00
2023-03-06T12:34:08.639Z,6.80
2023-03-06T12:36:25.852Z,6.40
2023-03-06T12:38:57.606Z,6.90
2023-03-06T12:41:08.868Z,7.40
2023-03-06T12:43:30.988Z,7.70
2023-03-06T12:45:37.001Z,8.10
2023-03-06T12:47:43.525Z,8.60
2023-03-06T12:49:52.824Z,9.00
2023-03-06T12:51:57.555Z,8.90
2023-03-06T12:54:03.105Z,9.30
2023-03-06T12:56:06.843Z,8.70
2023-03-06T12:58:48.245Z,8.90
2023-03-06T13:01:04.820Z,8.70
2023-03-06T13:03:17.214Z,7.10
2023-03-06T13:05:32.439Z,7.30
2023-03-06T13:07:56.592Z,7.90
2023-03-06T13:10:23.444Z,8.00
2023-03-06T13:12:37.760Z,8.50
2023-03-06T13:14:56.484Z,8.50
2023-03-06T13:19:28.268Z,8.80
2023-03-06T13:22:03.152Z,8.30
2023-03-06T13:24:06.967Z,8.20
2023-03-06T13:26:11.457Z,8.60
2023-03-06T13:28:25.224Z,8.70
2023-03-06T13:30:44.338Z,8.10
2023-03-06T13:32:47.308Z,7.90
2023-03-06T13:34:51.896Z,7.50
2023-03-06T13:37:14.700Z,7.50
2023-03-06T13:39:17.492Z,8.00
2023-03-06T13:41:58.180Z,7.90
2023-03-06T13:44:02.888Z,7.10
2023-03-06T13:46:24.717Z,7.40
2023-03-06T13:48:47.639Z,7.60
2023-03-06T13:50:52.891Z,7.90
2023-03-06T13:53:25.108Z,7.60
2023-03-06T13:55:36.741Z,7.40
2023-03-06T13:57:50.645Z,7.80
2023-03-06T14:00:15.285Z,7.20
2023-03-06T14:02:55.069Z,7.50
2023-03-06T14:04:59.550Z,7.40
2023-03-06T14:07:12.574Z,7.30
2023-03-06T14:09:24.839Z,7.30
2023-03-06T14:11:28.246Z,7.50
2023-03-06T14:13:46.644Z,6.90
2023-03-06T14:15:51.763Z,7.40
2023-03-06T14:18:00.408Z,7.10
2023-03-06T14:20:13.283Z,7.10
2023-03-06T14:22:21.795Z,7.10
2023-03-06T14:24:32.601Z,7.10
2023-03-06T14:26:41.018Z,7.10
2023-03-06T14:28:45.828Z,7.40
2023-03-06T14:30:51.218Z,7.40
2023-03-06T14:32:57.005Z,7.70
2023-03-06T14:34:59.757Z,7.90
2023-03-06T14:37:07.666Z,7.50
2023-03-06T14:39:15.664Z,7.10
2023-03-06T14:41:30.558Z,6.60
2023-03-06T14:43:33.373Z,6.60
2023-03-06T14:45:36.174Z,6.80
2023-03-06T14:47:39.050Z,6.60
2023-03-06T14:49:41.877Z,6.80
2023-03-06T14:51:46.920Z,6.60
2023-03-06T14:53:51.749Z,6.40
2023-03-06T14:55:57.993Z,6.00
2023-03-06T14:58:04.004Z,6.10
2023-03-06T15:00:08.515Z,6.10
2023-03-06T15:02:17.296Z,6.30
2023-03-06T15:04:27.758Z,6.10
2023-03-06T15:06:34.386Z,5.90
2023-03-06T15:08:40.233Z,6.30
2023-03-06T15:10:54.862Z,6.00
2023-03-06T15:13:09.422Z,6.10
2023-03-06T15:15:36.439Z,5.80
2023-03-06T15:17:41.976Z,5.80
2023-03-06T15:19:46.063Z,6.00
2023-03-06T15:21:51.602Z,6.40
2023-03-06T15:23:55.738Z,6.10
2023-03-06T15:26:00.685Z,6.00
2023-03-06T15:28:25.888Z,5.70
2023-03-06T15:30:31.198Z,5.60
2023-03-06T15:32:35.741Z,5.60
2023-03-06T15:34:38.652Z,5.40
2023-03-06T15:36:42.826Z,5.20
2023-03-06T15:38:47.437Z,5.40
2023-03-06T15:40:56.801Z,5.70
2023-03-06T15:42:59.905Z,5.90
2023-03-06T15:45:13.433Z,5.60
2023-03-06T15:47:16.214Z,6.00
2023-03-06T15:49:19.839Z,6.10
2023-03-06T15:51:22.658Z,6.00
2023-03-06T15:53:25.485Z,6.00
2023-03-06T15:55:28.298Z,5.90
2023-03-06T15:57:31.261Z,6.00
2023-03-06T15:59:39.419Z,6.20
2023-03-06T16:01:43.904Z,6.20
2023-03-06T16:03:47.134Z,6.30
2023-03-06T16:05:50.113Z,6.30
2023-03-06T16:07:53.536Z,6.40
2023-03-06T16:09:59.026Z,6.30
2023-03-06T16:12:02.113Z,6.20
2023-03-06T16:14:05.100Z,6.40
2023-03-06T16:16:11.663Z,6.30
2023-03-06T16:18:15.821Z,6.20
2023-03-06T16:20:21.466Z,6.40
2023-03-06T16:22:24.498Z,6.60
2023-03-06T16:24:27.244Z,6.30
2023-03-06T16:26:32.860Z,6.20
2023-03-06T16:28:40.802Z,6.20
2023-03-06T16:30:45.092Z,6.20
2023-03-06T16:32:48.111Z,6.20
2023-03-06T16:34:52.299Z,6.40
2023-03-06T16:36:55.297Z,6.50
2023-03-06T16:38:58.146Z,6.60
2023-03-06T16:41:00.940Z,6.40
2023-03-06T16:43:03.737Z,6.50
2023-03-06T16:45:07.352Z,6.60
2023-03-06T16:47:11.712Z,6.10
2023-03-06T16:49:17.787Z,6.10
2023-03-06T16:51:24.111Z,6.20
2023-03-06T16:53:27.382Z,6.30
2023-03-06T16:55:30.198Z,6.30
2023-03-06T16:57:35.673Z,6.30
2023-03-06T16:59:38.429Z,6.10
2023-03-06T17:01:42.966Z,5.80
2023-03-06T17:03:46.560Z,5.70
2023-03-06T17:05:49.298Z,5.70
2023-03-06T17:07:53.620Z,5.50
2023-03-06T17:09:56.475Z,5.50
2023-03-06T17:11:59.530Z,5.30
2023-03-06T17:14:02.806Z,5.40
2023-03-06T17:16:06.413Z,5.10
2023-03-06T17:18:09.184Z,5.20
2023-03-06T17:20:13.629Z,5.40
2023-03-06T17:22:17.863Z,5.10
2023-03-06T17:24:22.083Z,5.30
2023-03-06T17:26:24.855Z,5.70
2023-03-06T17:28:27.629Z,5.80
2023-03-06T17:30:31.179Z,6.10
2023-03-06T17:32:34.112Z,6.10
2023-03-06T17:34:36.900Z,6.20
2023-03-06T17:36:39.706Z,6.30
2023-03-06T17:38:42.821Z,6.40
2023-03-06T17:40:47.009Z,6.50
2023-03-06T17:42:50.584Z,6.50
2023-03-06T17:44:53.376Z,6.40
2023-03-06T17:46:56.173Z,6.40
2023-03-06T17:48:58.926Z,6.40
2023-03-06T17:51:02.047Z,6.50
2023-03-06T17:53:04.905Z,6.60
2023-03-06T17:55:09.895Z,6.60
2023-03-06T17:57:13.947Z,6.50
2023-03-06T17:59:16.681Z,6.60
2023-03-06T18:01:21.997Z,6.50
2023-03-06T18:03:24.848Z,6.40
2023-03-06T18:05:27.635Z,6.40
2023-03-06T18:07:30.341Z,6.40
2023-03-06T18:09:33.065Z,6.20
2023-03-06T18:11:37.197Z,6.30
2023-03-06T18:13:43.285Z,6.20
2023-03-06T18:15:46.002Z,6.00
2023-03-06T18:17:48.796Z,5.90
2023-03-06T18:19:52.586Z,5.80
2023-03-06T18:21:55.532Z,5.80
2023-03-06T18:23:58.648Z,5.60
2023-03-06T18:26:10.449Z,5.70
2023-03-06T18:28:13.722Z,5.90
2023-03-06T18:30:18.618Z,6.00
2023-03-06T18:32:21.393Z,6.10
2023-03-06T18:34:24.090Z,6.20
2023-03-06T18:36:29.169Z,6.30
2023-03-06T18:38:32.090Z,6.30
2023-03-06T18:40:35.128Z,6.40
2023-03-06T18:42:37.895Z,6.40
2023-03-06T18:44:40.934Z,6.40
2023-03-06T18:46:45.333Z,6.50
2023-03-06T18:48:48.123Z,6.50
2023-03-06T18:50:51.632Z,6.50
2023-03-06T18:52:54.371Z,6.50
2023-03-06T18:54:57.163Z,6.60
2023-03-06T18:56:59.906Z,6.60
2023-03-06T18:59:03.702Z,6.60
2023-03-06T19:01:08.013Z,6.50
2023-03-06T19:03:12.590Z,6.50
2023-03-06T19:05:15.415Z,6.40
2023-03-06T19:07:18.388Z,6.30
2023-03-06T19:09:21.557Z,6.30
2023-03-06T19:11:24.310Z,6.30
2023-03-06T19:13:27.332Z,6.20
2023-03-06T19:15:30.192Z,6.30
2023-03-06T19:17:33.105Z,6.20
2023-03-06T19:19:37.315Z,6.20
2023-03-06T19:21:40.097Z,6.20
2023-03-06T19:23:43.204Z,6.30
2023-03-06T19:25:57.819Z,6.30
2023-03-06T19:28:00.860Z,6.30
2023-03-06T19:30:04.642Z,6.30
2023-03-06T19:32:10.116Z,6.20
2023-03-06T19:34:13.116Z,6.10
2023-03-06T19:36:23.602Z,6.10
2023-03-06T19:38:26.560Z,6.10
2023-03-06T19:40:29.389Z,6.10
2023-03-06T19:42:32.784Z,6.10
2023-03-06T19:44:35.910Z,6.10
2023-03-06T19:46:40.665Z,6.10
2023-03-06T19:48:44.015Z,6.00
2023-03-06T19:50:46.762Z,6.00
2023-03-06T19:52:52.324Z,5.90
2023-03-06T19:54:55.145Z,5.90
2023-03-06T19:56:57.931Z,5.90
2023-03-06T19:59:00.847Z,5.90
2023-03-06T20:01:05.874Z,5.90
2023-03-06T20:03:08.853Z,5.80
2023-03-06T20:05:12.145Z,5.70
2023-03-06T20:07:14.869Z,5.80
2023-03-06T20:09:20.344Z,5.80
2023-03-06T20:11:24.974Z,5.80
2023-03-06T20:13:27.866Z,5.70
2023-03-06T20:15:31.001Z,5.60
2023-03-06T20:17:34.267Z,5.60
2023-03-06T20:19:37.510Z,5.50
2023-03-06T20:21:40.233Z,5.50
2023-03-06T20:23:43.207Z,5.50
2023-03-06T20:25:47.917Z,5.30
2023-03-06T20:27:50.667Z,5.20
2023-03-06T20:29:53.365Z,5.10
2023-03-06T20:31:56.657Z,5.10
2023-03-06T20:34:00.713Z,5.00
2023-03-06T20:36:04.035Z,5.00
2023-03-06T20:38:06.793Z,4.90
2023-03-06T20:40:11.125Z,4.80
2023-03-06T20:42:15.367Z,4.90
2023-03-06T20:44:19.911Z,5.00
2023-03-06T20:46:23.821Z,5.00
2023-03-06T20:48:26.746Z,5.00
2023-03-06T20:50:29.713Z,4.90
2023-03-06T20:52:32.949Z,4.70
2023-03-06T20:54:35.897Z,4.70
2023-03-06T20:56:41.060Z,4.70
2023-03-06T20:58:45.544Z,4.80
2023-03-06T21:00:48.320Z,4.90
2023-03-06T21:02:51.068Z,4.90
2023-03-06T21:04:53.859Z,4.90
2023-03-06T21:06:56.616Z,4.90
2023-03-06T21:09:00.426Z,4.90
2023-03-06T21:11:03.178Z,5.00
2023-03-06T21:13:06.018Z,4.90
2023-03-06T21:15:11.086Z,4.90
2023-03-06T21:17:13.973Z,4.90
2023-03-06T21:19:17.086Z,4.90
2023-03-06T21:21:22.261Z,5.00
2023-03-06T21:23:24.957Z,5.00
2023-03-06T21:25:28.211Z,5.00
2023-03-06T21:27:30.964Z,4.90
2023-03-06T21:29:33.795Z,4.80
2023-03-06T21:31:38.634Z,4.90
2023-03-06T21:33:41.900Z,5.00
2023-03-06T21:35:45.952Z,5.00
2023-03-06T21:37:48.796Z,5.00
2023-03-06T21:39:51.552Z,5.00
2023-03-06T21:41:54.259Z,5.00
2023-03-06T21:44:03.672Z,5.10
2023-03-06T21:46:06.928Z,5.00
2023-03-06T21:48:11.091Z,5.00
2023-03-06T21:50:14.109Z,5.10
2023-03-06T21:52:16.846Z,5.10
2023-03-06T21:54:19.892Z,5.10
2023-03-06T21:56:25.381Z,5.10
2023-03-06T21:58:31.315Z,5.10
2023-03-06T22:00:36.110Z,5.20
2023-03-06T22:02:39.109Z,5.30
2023-03-06T22:04:44.253Z,5.40
2023-03-06T22:06:46.975Z,5.50
2023-03-06T22:08:49.991Z,5.60
2023-03-06T22:10:52.799Z,5.50
2023-03-06T22:12:55.538Z,5.60
2023-03-06T22:14:58.265Z,5.70
2023-03-06T22:17:01.476Z,5.70
2023-03-06T22:19:04.381Z,5.70
2023-03-06T22:21:10.186Z,5.70
2023-03-06T22:23:13.343Z,5.80
2023-03-06T22:25:16.223Z,5.80
2023-03-06T22:27:18.975Z,5.80
2023-03-06T22:29:21.752Z,5.80
2023-03-06T22:31:26.488Z,5.90
2023-03-06T22:33:29.303Z,5.90
2023-03-06T22:35:32.068Z,6.00
2023-03-06T22:37:36.364Z,6.00
2023-03-06T22:39:39.281Z,5.90
2023-03-06T22:41:42.422Z,5.90
2023-03-06T22:43:45.265Z,6.10
2023-03-06T22:45:47.991Z,6.00
2023-03-06T22:47:53.384Z,6.10
2023-03-06T22:49:58.002Z,6.10
2023-03-06T22:52:00.758Z,6.10
2023-03-06T22:54:05.137Z,6.10
2023-03-06T22:56:11.146Z,6.10
2023-03-06T22:58:13.858Z,6.10
2023-03-06T23:00:17.014Z,6.10
2023-03-06T23:02:19.770Z,6.00
2023-03-06T23:04:22.553Z,6.00
2023-03-06T23:06:27.939Z,6.00
2023-03-06T23:08:30.675Z,6.10
2023-03-06T23:10:37.879Z,6.10
2023-03-06T23:12:41.603Z,6.10
2023-03-06T23:14:49.508Z,6.00
2023-03-06T23:16:52.574Z,6.10
2023-03-06T23:18:55.586Z,6.10
2023-03-06T23:20:58.858Z,6.20
2023-03-06T23:23:01.611Z,6.00
2023-03-06T23:25:04.411Z,5.90
2023-03-06T23:27:08.507Z,5.90
2023-03-06T23:29:11.254Z,5.90
2023-03-06T23:31:16.048Z,6.00
2023-03-06T23:33:18.914Z,5.90
2023-03-06T23:35:21.742Z,5.90
2023-03-06T23:37:24.619Z,6.00
2023-03-06T23:39:27.410Z,6.00
2023-03-06T23:41:30.145Z,6.00
2023-03-06T23:43:34.540Z,6.20
2023-03-06T23:45:37.339Z,6.20
2023-03-06T23:47:40.045Z,6.10
2023-03-06T23:49:42.793Z,6.20
2023-03-06T23:51:45.542Z,6.20
2023-03-06T23:53:53.759Z,6.30
2023-03-06T23:55:56.516Z,6.10
2023-03-06T23:57:59.235Z,6.20
